Time;durP1;ratioP1;P1;durP2;ratioP2;P2;SDS_P1;SDS_P2;PMS_P1;PMS_P2;Temp;Humidity;BMP_temperature;BMP_pressure;BME280_temperature;BME280_humidity;BME280_pressure;Samples;Min_cycle;Max_cycle;Signal;HPM_P1;HPM_P2
2023/05/12 00:00:48;;;;;;;;;;;;;;;19.71;63.84;98308.25;2067357;28;19929;-49
2023/05/12 00:01:49;;;;;;;;;;;;;;;19.70;63.71;98299.34;2067902;28;19924;-46
2023/05/12 00:02:51;;;;;;;;;;;;;;;19.70;63.86;98299.34;2067800;28;19975;-50
2023/05/12 00:03:52;;;;;;;;;;;;;;;19.70;63.78;98301.22;2066296;28;20024;-55
2023/05/12 00:04:54;;;;;;;;;;;;;;;19.71;64.04;98294.78;2068674;28;19968;-46
2023/05/12 00:05:54;;;;;;;;;;;;;;;19.71;63.59;98297.47;2068706;28;19921;-53
2023/05/12 00:06:55;;;;;;;;;;;;;;;19.69;64.08;98297.69;2069202;28;20321;-46
2023/05/12 00:07:56;;;;;;;;;;;;;;;19.69;64.03;98303.06;2071392;28;19929;-51
2023/05/12 00:08:57;;;;;;;;;;;;;;;19.67;63.88;98294.41;2069977;28;19983;-52
2023/05/12 00:09:58;;;;;;;;;;;;;;;19.69;63.88;98295.00;2065747;28;19929;-50
2023/05/12 00:10:59;;;;;;;;;;;;;;;19.69;63.82;98295.00;2068337;28;19929;-50
2023/05/12 00:12:00;;;;;;;;;;;;;;;19.68;63.79;98290.66;2067941;28;19928;-51
2023/05/12 00:13:03;;;;;;;;;;;;;;;19.67;63.74;98291.72;2067926;28;19928;-50
2023/05/12 00:14:04;;;;;;;;;;;;;;;19.69;64.13;98294.19;2069692;28;20034;-50
2023/05/12 00:15:06;;;;;;;;;;;;;;;19.68;63.81;98290.66;2066644;28;20445;-52
2023/05/12 00:16:06;;;;;;;;;;;;;;;19.67;63.84;98289.03;2066833;28;19998;-48
2023/05/12 00:17:08;;;;;;;;;;;;;;;19.69;63.72;98294.19;2067129;28;20058;-51
2023/05/12 00:18:09;;;;;;;;;;;;;;;19.67;64.00;98289.03;2069365;28;19928;-50
2023/05/12 00:19:10;;;;;;;;;;;;;;;19.70;64.00;98295.84;2069975;28;20052;-47
2023/05/12 00:20:11;;;;;;;;;;;;;;;19.70;63.82;98295.84;2069554;28;19933;-52
2023/05/12 00:21:13;;;;;;;;;;;;;;;19.69;64.00;98289.63;2067458;28;19933;-51
2023/05/12 00:22:15;;;;;;;;;;;;;;;19.69;63.93;98292.31;2067322;28;19925;-51
2023/05/12 00:23:17;;;;;;;;;;;;;;;19.69;63.82;98288.81;2072345;28;20395;-50
2023/05/12 00:24:17;;;;;;;;;;;;;;;19.69;63.91;98289.63;2076414;28;19925;-51
2023/05/12 00:25:19;;;;;;;;;;;;;;;19.67;63.96;98286.34;2076926;28;20386;-50
2023/05/12 00:26:19;;;;;;;;;;;;;;;19.68;63.74;98290.66;2075868;28;19925;-50
2023/05/12 00:27:21;;;;;;;;;;;;;;;19.68;63.61;98287.97;2076039;28;20509;-50
2023/05/12 00:28:23;;;;;;;;;;;;;;;19.68;64.00;98282.59;2075421;28;19982;-54
2023/05/12 00:29:24;;;;;;;;;;;;;;;19.67;63.98;98286.34;2076459;28;19925;-51
2023/05/12 00:30:25;;;;;;;;;;;;;;;19.67;63.67;98286.34;2078358;28;19935;-49
2023/05/12 00:31:26;;;;;;;;;;;;;;;19.66;63.65;98284.69;2078088;28;20960;-49
2023/05/12 00:32:27;;;;;;;;;;;;;;;19.68;63.71;98287.16;2077575;28;19967;-48
2023/05/12 00:33:28;;;;;;;;;;;;;;;19.68;63.55;98279.91;2076639;28;20291;-49
2023/05/12 00:34:28;;;;;;;;;;;;;;;19.67;63.89;98275.59;2077742;28;19935;-51
2023/05/12 00:35:30;;;;;;;;;;;;;;;19.68;64.01;98287.16;2079590;28;20411;-47
2023/05/12 00:36:30;;;;;;;;;;;;;;;19.66;63.72;98284.69;2075773;28;19920;-49
2023/05/12 00:37:32;;;;;;;;;;;;;;;19.64;63.76;98284.06;2076626;28;19921;-48
2023/05/12 00:38:35;;;;;;;;;;;;;;;19.66;63.64;98287.38;2076338;28;20013;-47
2023/05/12 00:39:36;;;;;;;;;;;;;;;19.66;63.91;98284.69;2075998;28;19932;-51
2023/05/12 00:40:38;;;;;;;;;;;;;;;19.67;63.66;98290.88;2075673;28;19933;-47
2023/05/12 00:41:39;;;;;;;;;;;;;;;19.66;63.76;98286.56;2076852;28;19998;-50
2023/05/12 00:42:40;;;;;;;;;;;;;;;19.64;63.78;98279.50;2076953;28;19991;-50
2023/05/12 00:43:42;;;;;;;;;;;;;;;19.65;63.96;98280.31;2075840;28;19974;-50
2023/05/12 00:44:43;;;;;;;;;;;;;;;19.64;63.73;98286.75;2076149;28;20541;-49
2023/05/12 00:45:44;;;;;;;;;;;;;;;19.65;63.88;98277.63;2076857;28;20020;-50
2023/05/12 00:46:45;;;;;;;;;;;;;;;19.65;63.54;98277.63;2077455;28;19932;-51
2023/05/12 00:47:46;;;;;;;;;;;;;;;19.64;63.92;98278.69;2076945;28;20002;-50
2023/05/12 00:48:47;;;;;;;;;;;;;;;19.64;63.66;98270.59;2076841;28;19929;-58
2023/05/12 00:49:48;;;;;;;;;;;;;;;19.66;63.92;98281.16;2076233;28;19932;-52
2023/05/12 00:50:49;;;;;;;;;;;;;;;19.65;63.71;98269.56;2076208;28;19929;-50
2023/05/12 00:51:50;;;;;;;;;;;;;;;19.64;63.84;98276.81;2076860;28;20436;-49
2023/05/12 00:52:52;;;;;;;;;;;;;;;19.62;63.71;98276.19;2076655;28;19928;-51
2023/05/12 00:53:52;;;;;;;;;;;;;;;19.65;63.94;98283.00;2076645;28;19925;-50
2023/05/12 00:54:54;;;;;;;;;;;;;;;19.62;63.62;98272.69;2077343;28;19921;-51
2023/05/12 00:55:56;;;;;;;;;;;;;;;19.63;63.98;98277.00;2077740;28;19929;-52
2023/05/12 00:56:57;;;;;;;;;;;;;;;19.66;63.58;98275.78;2076363;28;20023;-49
2023/05/12 00:57:58;;;;;;;;;;;;;;;19.64;63.62;98276.00;2076337;28;20763;-52
2023/05/12 00:59:01;;;;;;;;;;;;;;;19.64;63.86;98281.38;2075971;28;19975;-48
2023/05/12 01:00:01;;;;;;;;;;;;;;;19.66;63.84;98279.28;2075045;28;19982;-46
2023/05/12 01:01:03;;;;;;;;;;;;;;;19.64;63.51;98276.00;2077040;28;20334;-51
2023/05/12 01:02:03;;;;;;;;;;;;;;;19.63;63.80;98272.44;2075829;28;20098;-49
2023/05/12 01:03:05;;;;;;;;;;;;;;;19.64;63.83;98276.00;2076267;28;19928;-51
2023/05/12 01:04:06;;;;;;;;;;;;;;;19.61;63.62;98277.25;2075993;28;19925;-47
2023/05/12 01:05:08;;;;;;;;;;;;;;;19.61;63.78;98271.88;2077524;28;19991;-50
2023/05/12 01:06:11;;;;;;;;;;;;;;;19.63;63.62;98274.31;2076449;28;21061;-52
2023/05/12 01:07:15;;;;;;;;;;;;;;;19.62;63.73;98270.00;2076260;28;19937;-51
2023/05/12 01:08:16;;;;;;;;;;;;;;;19.60;63.54;98270.19;2075141;28;19921;-50
2023/05/12 01:09:18;;;;;;;;;;;;;;;19.61;63.71;98262.94;2076668;28;19986;-50
2023/05/12 01:10:20;;;;;;;;;;;;;;;19.62;63.56;98260.06;2074430;28;20366;-49
2023/05/12 01:11:21;;;;;;;;;;;;;;;19.62;63.87;98257.38;2068123;28;19924;-51
2023/05/12 01:12:22;;;;;;;;;;;;;;;19.63;63.66;98266.25;2069116;28;19924;-49
2023/05/12 01:13:23;;;;;;;;;;;;;;;19.63;63.46;98268.94;2068765;28;19978;-50
2023/05/12 01:14:25;;;;;;;;;;;;;;;19.63;63.49;98264.38;2067466;28;20087;-51
2023/05/12 01:15:28;;;;;;;;;;;;;;;19.61;63.77;98271.03;2069668;28;19925;-52
2023/05/12 01:16:33;;;;;;;;;;;;;;;19.61;63.88;98269.19;2067607;28;19924;-50
2023/05/12 01:17:35;;;;;;;;;;;;;;;19.61;63.87;98268.34;2064698;28;20449;-47
2023/05/12 01:18:36;;;;;;;;;;;;;;;19.61;63.51;98271.88;2060645;28;20015;-51
2023/05/12 01:19:43;;;;;;;;;;;;;;;19.61;63.81;98276.41;2066250;28;20054;-51
2023/05/12 01:20:45;;;;;;;;;;;;;;;19.60;63.64;98272.88;2067813;28;19935;-49
2023/05/12 01:21:47;;;;;;;;;;;;;;;19.60;63.71;98264.81;2068419;28;19928;-50
2023/05/12 01:22:48;;;;;;;;;;;;;;;19.61;63.60;98276.41;2069314;28;19929;-51
2023/05/12 01:23:52;;;;;;;;;;;;;;;19.61;63.82;98276.41;2068710;28;19998;-55
2023/05/12 01:24:53;;;;;;;;;;;;;;;19.60;63.84;98274.75;2069987;28;19955;-59
2023/05/12 01:25:55;;;;;;;;;;;;;;;19.59;63.64;98278.50;2072078;28;20398;-54
2023/05/12 01:26:58;;;;;;;;;;;;;;;19.60;63.57;98269.38;2070225;28;19929;-56
2023/05/12 01:27:59;;;;;;;;;;;;;;;19.59;63.70;98278.50;2070705;28;20007;-52
2023/05/12 01:29:01;;;;;;;;;;;;;;;19.59;63.71;98278.50;2069213;28;20674;-52
2023/05/12 01:30:03;;;;;;;;;;;;;;;19.60;63.55;98280.16;2069828;28;19929;-55
2023/05/12 01:31:05;;;;;;;;;;;;;;;19.61;63.50;98273.72;2069709;28;22005;-53
2023/05/12 01:32:07;;;;;;;;;;;;;;;19.60;63.56;98275.59;2068782;28;19925;-52
2023/05/12 01:33:08;;;;;;;;;;;;;;;19.59;63.84;98273.94;2068484;28;19928;-55
2023/05/12 01:34:13;;;;;;;;;;;;;;;19.60;63.58;98272.88;2068689;28;21067;-53
2023/05/12 01:35:14;;;;;;;;;;;;;;;19.60;63.87;98274.75;2067567;28;21280;-58
2023/05/12 01:36:14;;;;;;;;;;;;;;;19.58;63.46;98266.91;2069271;28;19959;-59
2023/05/12 01:37:16;;;;;;;;;;;;;;;19.58;63.72;98276.84;2067003;28;20410;-48
2023/05/12 01:38:17;;;;;;;;;;;;;;;19.57;63.79;98267.94;2066342;28;20601;-49
2023/05/12 01:39:19;;;;;;;;;;;;;;;19.58;63.68;98268.78;2067506;28;19931;-49
2023/05/12 01:40:19;;;;;;;;;;;;;;;19.58;63.49;98274.16;2067281;28;20325;-48
2023/05/12 01:41:21;;;;;;;;;;;;;;;19.58;63.71;98268.78;2075352;28;20004;-51
2023/05/12 01:42:23;;;;;;;;;;;;;;;19.59;63.87;98273.13;2068221;28;19932;-50
2023/05/12 01:43:24;;;;;;;;;;;;;;;19.58;63.73;98266.91;2069409;28;19966;-52
2023/05/12 01:44:24;;;;;;;;;;;;;;;19.58;63.89;98268.78;2070121;28;20402;-50
2023/05/12 01:45:26;;;;;;;;;;;;;;;19.58;63.91;98272.28;2068722;28;19964;-51
2023/05/12 01:46:26;;;;;;;;;;;;;;;19.57;63.57;98267.94;2072986;28;19921;-51
2023/05/12 01:47:28;;;;;;;;;;;;;;;19.57;63.61;98265.25;2066612;28;19925;-48
2023/05/12 01:48:28;;;;;;;;;;;;;;;19.57;63.88;98267.13;2071107;28;19986;-50
2023/05/12 01:49:30;;;;;;;;;;;;;;;19.56;63.98;98274.38;2071797;28;19929;-53
2023/05/12 01:50:30;;;;;;;;;;;;;;;19.57;63.70;98272.50;2069692;28;19925;-50
2023/05/12 01:51:32;;;;;;;;;;;;;;;19.58;63.63;98271.47;2070242;28;20023;-49
2023/05/12 01:52:32;;;;;;;;;;;;;;;19.57;63.82;98275.19;2073968;28;19979;-51
2023/05/12 01:53:34;;;;;;;;;;;;;;;19.58;63.48;98274.16;2070662;28;19929;-48
2023/05/12 01:54:34;;;;;;;;;;;;;;;19.58;63.56;98266.91;2072748;28;19978;-50
2023/05/12 01:55:36;;;;;;;;;;;;;;;19.55;63.41;98272.72;2069947;28;19928;-50
2023/05/12 01:56:37;;;;;;;;;;;;;;;19.56;63.73;98269.00;2073341;28;19970;-49
2023/05/12 01:57:39;;;;;;;;;;;;;;;19.57;63.71;98272.50;2065809;28;22785;-51
2023/05/12 01:58:40;;;;;;;;;;;;;;;19.56;63.61;98271.69;2070362;28;19930;-51
2023/05/12 01:59:41;;;;;;;;;;;;;;;19.55;63.85;98270.03;2073010;28;19947;-51
2023/05/12 02:00:42;;;;;;;;;;;;;;;19.55;63.74;98272.72;2067867;28;20053;-49
2023/05/12 02:01:43;;;;;;;;;;;;;;;19.55;63.74;98274.59;2072254;28;19929;-50
2023/05/12 02:02:44;;;;;;;;;;;;;;;19.55;63.76;98271.91;2071148;28;20671;-47
2023/05/12 02:03:45;;;;;;;;;;;;;;;19.54;63.50;98270.25;2070923;28;19925;-51
2023/05/12 02:04:46;;;;;;;;;;;;;;;19.55;63.47;98274.59;2072093;28;20014;-50
2023/05/12 02:05:47;;;;;;;;;;;;;;;19.56;63.68;98273.56;2067761;28;20456;-56
2023/05/12 02:06:48;;;;;;;;;;;;;;;19.55;63.75;98269.22;2069023;28;20367;-47
2023/05/12 02:07:49;;;;;;;;;;;;;;;19.55;63.85;98271.91;2071662;28;19929;-50
2023/05/12 02:08:50;;;;;;;;;;;;;;;19.54;63.53;98270.25;2069872;28;20965;-50
2023/05/12 02:09:51;;;;;;;;;;;;;;;19.54;63.58;98276.47;2071844;28;19925;-48
2023/05/12 02:11:02;;;;;;;;;;;;;;;19.54;63.82;98270.25;2072988;28;20031;-51
2023/05/12 02:12:04;;;;;;;;;;;;;;;19.55;63.74;98269.22;2072555;28;19963;-53
2023/05/12 02:13:06;;;;;;;;;;;;;;;19.56;63.71;98274.38;2074363;28;19955;-51
2023/05/12 02:14:07;;;;;;;;;;;;;;;19.54;63.85;98265.69;2069860;28;19994;-52
2023/05/12 02:15:08;;;;;;;;;;;;;;;19.55;63.60;98270.03;2069511;28;20005;-53
2023/05/12 02:16:10;;;;;;;;;;;;;;;19.55;63.70;98269.22;2069822;28;19974;-49
2023/05/12 02:17:10;;;;;;;;;;;;;;;19.55;63.74;98266.53;2069171;28;20052;-49
2023/05/12 02:18:12;;;;;;;;;;;;;;;19.55;63.83;98267.34;2069197;28;19935;-49
2023/05/12 02:19:12;;;;;;;;;;;;;;;19.54;63.77;98270.25;2071097;28;19955;-51
2023/05/12 02:20:14;;;;;;;;;;;;;;;19.54;63.70;98262.19;2068842;28;19928;-50
2023/05/12 02:21:14;;;;;;;;;;;;;;;19.53;63.73;98265.91;2070326;28;19932;-48
2023/05/12 02:22:16;;;;;;;;;;;;;;;19.55;63.84;98266.53;2070257;28;19980;-50
2023/05/12 02:23:17;;;;;;;;;;;;;;;19.53;63.64;98274.81;2074051;28;19925;-48
2023/05/12 02:24:20;;;;;;;;;;;;;;;19.53;63.85;98263.22;2078655;28;20012;-50
2023/05/12 02:25:21;;;;;;;;;;;;;;;19.54;63.54;98270.25;2077271;28;19998;-52
2023/05/12 02:26:22;;;;;;;;;;;;;;;19.53;63.58;98268.59;2076040;28;19928;-50
2023/05/12 02:27:23;;;;;;;;;;;;;;;19.52;63.55;98272.34;2077734;28;19925;-52
2023/05/12 02:28:26;;;;;;;;;;;;;;;19.52;63.48;98275.84;2077350;28;19943;-52
2023/05/12 02:29:26;;;;;;;;;;;;;;;19.53;63.77;98268.59;2077178;28;19932;-48
2023/05/12 02:30:27;;;;;;;;;;;;;;;19.52;63.86;98273.16;2078783;28;20375;-52
2023/05/12 02:31:28;;;;;;;;;;;;;;;19.51;63.48;98268.84;2077965;28;19963;-47
2023/05/12 02:32:29;;;;;;;;;;;;;;;19.52;63.84;98270.47;2078843;28;20649;-52
2023/05/12 02:33:30;;;;;;;;;;;;;;;19.52;63.81;98269.66;2078015;28;19932;-52
2023/05/12 02:34:31;;;;;;;;;;;;;;;19.50;63.86;98264.50;2077685;28;20481;-48
2023/05/12 02:35:32;;;;;;;;;;;;;;;19.50;63.66;98267.19;2079438;28;20001;-49
2023/05/12 02:36:33;;;;;;;;;;;;;;;19.53;63.83;98268.59;2077167;28;19987;-51
2023/05/12 02:37:34;;;;;;;;;;;;;;;19.51;63.82;98270.69;2077695;28;20386;-49
2023/05/12 02:38:35;;;;;;;;;;;;;;;19.51;63.72;98265.31;2079547;28;20021;-51
2023/05/12 02:39:35;;;;;;;;;;;;;;;19.50;63.60;98263.66;2078301;28;20689;-51
2023/05/12 02:40:37;;;;;;;;;;;;;;;19.51;63.79;98268.00;2079353;28;20004;-51
2023/05/12 02:41:37;;;;;;;;;;;;;;;19.50;63.61;98266.34;2077590;28;19924;-51
2023/05/12 02:42:39;;;;;;;;;;;;;;;19.50;63.84;98267.19;2078887;28;20567;-52
2023/05/12 02:43:41;;;;;;;;;;;;;;;19.49;63.79;98267.41;2078886;28;19977;-50
2023/05/12 02:44:42;;;;;;;;;;;;;;;19.49;63.79;98270.09;2078089;28;20598;-50
2023/05/12 02:45:43;;;;;;;;;;;;;;;19.50;63.77;98263.66;2078134;28;19925;-49
2023/05/12 02:46:44;;;;;;;;;;;;;;;19.49;63.76;98265.53;2079773;28;19928;-50
2023/05/12 02:47:44;;;;;;;;;;;;;;;19.50;63.37;98274.41;2077144;28;20342;-48
2023/05/12 02:48:46;;;;;;;;;;;;;;;19.50;63.41;98267.19;2079259;28;19971;-50
2023/05/12 02:49:46;;;;;;;;;;;;;;;19.49;63.35;98268.22;2076994;28;19986;-51
2023/05/12 02:50:48;;;;;;;;;;;;;;;19.49;63.52;98268.22;2080577;28;19998;-55
2023/05/12 02:51:48;;;;;;;;;;;;;;;19.50;63.69;98269.88;2079873;28;19925;-53
2023/05/12 02:52:50;;;;;;;;;;;;;;;19.51;63.56;98268.84;2078353;28;19932;-49
2023/05/12 02:53:51;;;;;;;;;;;;;;;19.51;63.41;98271.53;2078693;28;20006;-48
2023/05/12 02:54:52;;;;;;;;;;;;;;;19.51;63.32;98273.41;2081188;28;19921;-52
2023/05/12 02:55:52;;;;;;;;;;;;;;;19.50;63.56;98269.88;2076745;28;19925;-53
2023/05/12 02:56:55;;;;;;;;;;;;;;;19.50;63.48;98277.09;2078559;28;20483;-50
2023/05/12 02:57:55;;;;;;;;;;;;;;;19.49;63.34;98278.16;2077912;28;20430;-49
2023/05/12 02:58:58;;;;;;;;;;;;;;;19.48;63.62;98280.03;2077827;28;20015;-50
2023/05/12 02:59:59;;;;;;;;;;;;;;;19.49;63.56;98280.84;2077955;28;19978;-51
2023/05/12 03:01:00;;;;;;;;;;;;;;;19.49;63.77;98280.84;2077580;28;20887;-50
2023/05/12 03:02:01;;;;;;;;;;;;;;;19.49;63.74;98278.16;2077934;28;19924;-49
2023/05/12 03:03:02;;;;;;;;;;;;;;;19.50;63.42;98282.47;2078714;28;19925;-55
2023/05/12 03:04:03;;;;;;;;;;;;;;;19.49;63.67;98284.34;2081208;28;19925;-56
2023/05/12 03:05:04;;;;;;;;;;;;;;;19.49;63.60;98278.16;2076341;28;19924;-51
2023/05/12 03:06:05;;;;;;;;;;;;;;;19.49;63.40;98283.53;2077928;28;20131;-46
2023/05/12 03:07:07;;;;;;;;;;;;;;;19.48;63.73;98277.34;2076408;28;19933;-49
2023/05/12 03:08:08;;;;;;;;;;;;;;;19.49;63.46;98287.03;2077144;28;19936;-50
2023/05/12 03:09:09;;;;;;;;;;;;;;;19.48;63.65;98271.97;2077420;28;19934;-49
2023/05/12 03:10:10;;;;;;;;;;;;;;;19.49;63.72;98273.59;2070403;28;19935;-47
2023/05/12 03:11:11;;;;;;;;;;;;;;;19.48;63.76;98271.97;2068300;28;20385;-50
2023/05/12 03:12:12;;;;;;;;;;;;;;;19.49;63.35;98267.41;2068414;28;19929;-50
2023/05/12 03:13:13;;;;;;;;;;;;;;;19.48;63.72;98271.13;2068206;28;20383;-49
2023/05/12 03:14:15;;;;;;;;;;;;;;;19.49;63.38;98264.72;2073747;28;20383;-48
2023/05/12 03:15:16;;;;;;;;;;;;;;;19.50;63.58;98275.25;2068595;28;20075;-50
2023/05/12 03:16:17;;;;;;;;;;;;;;;19.48;63.66;98263.88;2067587;28;20041;-50
2023/05/12 03:17:18;;;;;;;;;;;;;;;19.48;63.33;98268.44;2069023;28;19990;-53
2023/05/12 03:18:19;;;;;;;;;;;;;;;19.47;63.79;98270.28;2070511;28;20407;-53
2023/05/12 03:19:20;;;;;;;;;;;;;;;19.46;63.64;98267.84;2069941;28;19920;-51
2023/05/12 03:20:21;;;;;;;;;;;;;;;19.45;63.53;98275.09;2068997;28;19929;-51
2023/05/12 03:21:22;;;;;;;;;;;;;;;19.46;63.50;98274.03;2068880;28;20451;-49
2023/05/12 03:22:23;;;;;;;;;;;;;;;19.45;63.78;98267.03;2069337;28;19971;-48
2023/05/12 03:23:24;;;;;;;;;;;;;;;19.47;63.66;98274.84;2070162;28;19933;-47
2023/05/12 03:24:25;;;;;;;;;;;;;;;19.47;63.72;98272.16;2070035;28;20446;-48
2023/05/12 03:25:26;;;;;;;;;;;;;;;19.46;63.78;98270.53;2068841;28;19929;-53
2023/05/12 03:26:26;;;;;;;;;;;;;;;19.45;63.32;98272.41;2071162;28;19943;-49
2023/05/12 03:27:28;;;;;;;;;;;;;;;19.45;63.67;98274.28;2073969;28;19936;-46
2023/05/12 03:28:31;;;;;;;;;;;;;;;19.45;63.71;98271.59;2070112;28;21428;-50
2023/05/12 03:29:32;;;;;;;;;;;;;;;19.46;63.51;98275.91;2072576;28;19969;-50
2023/05/12 03:30:34;;;;;;;;;;;;;;;19.45;63.49;98271.59;2069259;28;19990;-48
2023/05/12 03:31:35;;;;;;;;;;;;;;;19.43;63.75;98269.09;2066099;28;20003;-47
2023/05/12 03:32:37;;;;;;;;;;;;;;;19.43;63.40;98275.28;2072159;28;19929;-48
2023/05/12 03:33:38;;;;;;;;;;;;;;;19.46;63.33;98268.66;2067331;28;19925;-50
2023/05/12 03:34:40;;;;;;;;;;;;;;;19.45;63.65;98263.50;2075505;28;19928;-48
2023/05/12 03:35:40;;;;;;;;;;;;;;;19.42;63.69;98268.28;2068037;28;19924;-49
2023/05/12 03:36:42;;;;;;;;;;;;;;;19.45;63.65;98264.34;2071499;28;19925;-51
2023/05/12 03:37:42;;;;;;;;;;;;;;;19.45;63.36;98264.34;2073112;28;20956;-48
2023/05/12 03:38:44;;;;;;;;;;;;;;;19.45;63.35;98263.50;2074841;28;19931;-49
2023/05/12 03:39:44;;;;;;;;;;;;;;;19.45;63.71;98255.44;2069701;28;20821;-49
2023/05/12 03:40:51;;;;;;;;;;;;;;;19.45;63.52;98255.44;2069830;28;19921;-49
2023/05/12 03:41:51;;;;;;;;;;;;;;;19.42;63.35;98257.53;2074570;28;19928;-52
2023/05/12 03:42:53;;;;;;;;;;;;;;;19.43;63.39;98250.28;2073961;28;20718;-50
2023/05/12 03:43:53;;;;;;;;;;;;;;;19.43;63.48;98253.78;2074546;28;19928;-48
2023/05/12 03:44:56;;;;;;;;;;;;;;;19.46;63.26;98262.47;2068694;28;19924;-49
2023/05/12 03:45:57;;;;;;;;;;;;;;;19.47;63.32;98262.22;2072009;28;19933;-51
2023/05/12 03:46:58;;;;;;;;;;;;;;;19.45;63.66;98258.13;2070346;28;20668;-50
2023/05/12 03:47:59;;;;;;;;;;;;;;;19.45;63.52;98256.25;2072593;28;19928;-49
2023/05/12 03:49:00;;;;;;;;;;;;;;;19.45;63.48;98264.34;2069519;28;19936;-49
2023/05/12 03:50:01;;;;;;;;;;;;;;;19.43;63.49;98263.72;2067186;28;19929;-52
2023/05/12 03:51:02;;;;;;;;;;;;;;;19.45;63.65;98263.50;2077598;28;19943;-51
2023/05/12 03:52:03;;;;;;;;;;;;;;;19.45;63.52;98263.50;2071447;28;19925;-52
2023/05/12 03:53:05;;;;;;;;;;;;;;;19.45;63.37;98266.19;2069478;28;20391;-50
2023/05/12 03:54:05;;;;;;;;;;;;;;;19.45;63.67;98266.19;2072128;28;20021;-47
2023/05/12 03:55:07;;;;;;;;;;;;;;;19.42;63.42;98270.16;2073067;28;20673;-51
2023/05/12 03:56:08;;;;;;;;;;;;;;;19.42;63.43;98265.59;2072432;28;20688;-52
2023/05/12 03:57:09;;;;;;;;;;;;;;;19.42;63.68;98265.59;2073959;28;19929;-50
2023/05/12 03:58:09;;;;;;;;;;;;;;;19.41;63.63;98258.53;2073480;28;19955;-49
2023/05/12 03:59:11;;;;;;;;;;;;;;;19.42;63.64;98264.78;2072622;28;19941;-55
2023/05/12 04:00:14;;;;;;;;;;;;;;;19.43;63.28;98269.91;2068302;28;19925;-55
2023/05/12 04:01:15;;;;;;;;;;;;;;;19.40;63.74;98262.28;2071558;28;19925;-51
2023/05/12 04:02:16;;;;;;;;;;;;;;;19.41;63.33;98263.91;2069358;28;19925;-49
2023/05/12 04:03:17;;;;;;;;;;;;;;;19.39;63.55;98257.97;2065747;28;21024;-53
2023/05/12 04:04:18;;;;;;;;;;;;;;;19.41;63.42;98257.72;2075817;28;19940;-47
2023/05/12 04:05:19;;;;;;;;;;;;;;;19.40;63.67;98259.59;2071947;28;20521;-50
2023/05/12 04:06:20;;;;;;;;;;;;;;;19.39;63.64;98263.34;2068442;28;19929;-52
2023/05/12 04:07:21;;;;;;;;;;;;;;;19.39;63.75;98263.34;2071336;28;19928;-50
2023/05/12 04:08:21;;;;;;;;;;;;;;;19.41;63.71;98268.47;2068233;28;19925;-52
2023/05/12 04:09:23;;;;;;;;;;;;;;;19.41;63.60;98263.91;2067838;28;19925;-50
2023/05/12 04:10:23;;;;;;;;;;;;;;;19.40;63.40;98254.22;2070251;28;20115;-50
2023/05/12 04:11:25;;;;;;;;;;;;;;;19.41;63.67;98261.22;2065617;28;20915;-52
2023/05/12 04:12:25;;;;;;;;;;;;;;;19.40;63.56;98262.28;2067412;28;19958;-50
2023/05/12 04:13:27;;;;;;;;;;;;;;;19.41;63.44;98263.09;2063597;28;19971;-48
2023/05/12 04:14:28;;;;;;;;;;;;;;;19.40;63.61;98254.22;2075086;28;20539;-47
2023/05/12 04:15:31;;;;;;;;;;;;;;;19.40;63.60;98251.53;2068663;28;19970;-50
2023/05/12 04:16:31;;;;;;;;;;;;;;;19.42;63.30;98260.22;2070853;28;19925;-51
2023/05/12 04:17:32;;;;;;;;;;;;;;;19.41;63.26;98263.91;2067121;28;20034;-51
2023/05/12 04:18:34;;;;;;;;;;;;;;;19.42;63.15;98257.53;2068455;28;20361;-49
2023/05/12 04:19:36;;;;;;;;;;;;;;;19.41;63.58;98263.09;2068789;28;20963;-52
2023/05/12 04:20:36;;;;;;;;;;;;;;;19.39;63.45;98263.34;2067765;28;19978;-50
2023/05/12 04:21:37;;;;;;;;;;;;;;;19.39;63.38;98257.97;2069272;28;19982;-50
2023/05/12 04:22:38;;;;;;;;;;;;;;;19.39;63.43;98260.66;2075032;28;19924;-51
2023/05/12 04:23:39;;;;;;;;;;;;;;;19.38;63.37;98264.34;2076492;28;19928;-51
2023/05/12 04:24:40;;;;;;;;;;;;;;;19.40;63.47;98266.84;2075825;28;19925;-51
2023/05/12 04:25:41;;;;;;;;;;;;;;;19.40;63.56;98275.72;2078389;28;19966;-53
2023/05/12 04:26:42;;;;;;;;;;;;;;;19.39;63.44;98266.03;2074310;28;19920;-52
2023/05/12 04:27:43;;;;;;;;;;;;;;;19.39;63.67;98262.50;2074662;28;20596;-52
2023/05/12 04:28:43;;;;;;;;;;;;;;;19.38;63.63;98260.84;2074579;28;19974;-50
2023/05/12 04:29:45;;;;;;;;;;;;;;;19.39;63.62;98259.81;2072774;28;20543;-51
2023/05/12 04:30:47;;;;;;;;;;;;;;;19.39;63.41;98259.81;2076761;28;20047;-52
2023/05/12 04:31:48;;;;;;;;;;;;;;;19.38;63.32;98256.28;2073606;28;20293;-52
2023/05/12 04:32:49;;;;;;;;;;;;;;;19.39;63.63;98259.81;2075499;28;19920;-50
2023/05/12 04:33:50;;;;;;;;;;;;;;;19.38;63.22;98253.59;2074079;28;19974;-53
2023/05/12 04:34:54;;;;;;;;;;;;;;;19.38;63.61;98256.28;2075981;28;19969;-53
2023/05/12 04:35:55;;;;;;;;;;;;;;;19.38;63.28;98253.59;2074743;28;19924;-50
2023/05/12 04:36:56;;;;;;;;;;;;;;;19.38;63.38;98256.28;2074835;28;19924;-51
2023/05/12 04:37:57;;;;;;;;;;;;;;;19.39;63.64;98254.44;2072630;28;19925;-50
2023/05/12 04:38:58;;;;;;;;;;;;;;;19.39;63.41;98257.97;2076911;28;19959;-50
2023/05/12 04:39:59;;;;;;;;;;;;;;;19.38;63.43;98253.59;2073525;28;19925;-54
2023/05/12 04:41:00;;;;;;;;;;;;;;;19.37;63.48;98257.34;2074460;28;19925;-51
2023/05/12 04:42:01;;;;;;;;;;;;;;;19.36;63.48;98258.41;2076674;28;19980;-51
2023/05/12 04:43:02;;;;;;;;;;;;;;;19.37;63.30;98259.22;2076781;28;20809;-50
2023/05/12 04:44:03;;;;;;;;;;;;;;;19.37;63.65;98260.03;2073232;28;20006;-51
2023/05/12 04:45:04;;;;;;;;;;;;;;;19.37;63.50;98259.22;2077903;28;19974;-50
2023/05/12 04:46:07;;;;;;;;;;;;;;;19.35;63.62;98256.72;2076771;28;19929;-49
2023/05/12 04:47:07;;;;;;;;;;;;;;;19.37;63.36;98254.66;2076741;28;19925;-52
2023/05/12 04:48:09;;;;;;;;;;;;;;;19.35;63.37;98256.72;2077430;28;19971;-49
2023/05/12 04:49:09;;;;;;;;;;;;;;;19.38;63.30;98258.16;2076046;28;19924;-50
2023/05/12 04:50:11;;;;;;;;;;;;;;;19.35;63.37;98259.41;2074859;28;19929;-50
2023/05/12 04:51:11;;;;;;;;;;;;;;;19.36;63.70;98265.63;2074903;28;19982;-51
2023/05/12 04:52:13;;;;;;;;;;;;;;;19.35;63.29;98267.47;2078040;28;19929;-49
2023/05/12 04:53:14;;;;;;;;;;;;;;;19.35;63.59;98262.09;2075818;28;19979;-50
2023/05/12 04:54:15;;;;;;;;;;;;;;;19.36;63.46;98261.09;2078366;28;20036;-50
2023/05/12 04:55:15;;;;;;;;;;;;;;;19.36;63.29;98260.22;2075641;28;19925;-51
2023/05/12 04:56:17;;;;;;;;;;;;;;;19.35;63.41;98262.09;2073990;28;20517;-52
2023/05/12 04:57:17;;;;;;;;;;;;;;;19.36;63.56;98260.22;2067535;28;19925;-50
2023/05/12 04:58:19;;;;;;;;;;;;;;;19.36;63.41;98266.47;2067798;28;19979;-52
2023/05/12 04:59:20;;;;;;;;;;;;;;;19.36;63.28;98261.09;2068390;28;19941;-50
2023/05/12 05:00:22;;;;;;;;;;;;;;;19.36;63.38;98258.41;2069041;28;21069;-50
2023/05/12 05:01:23;;;;;;;;;;;;;;;19.36;63.41;98263.78;2071001;28;19978;-51
2023/05/12 05:02:25;;;;;;;;;;;;;;;19.35;63.21;98255.91;2066372;28;20315;-51
2023/05/12 05:03:25;;;;;;;;;;;;;;;19.35;63.43;98259.41;2073329;28;19925;-51
2023/05/12 05:04:27;;;;;;;;;;;;;;;19.35;63.32;98261.28;2069764;28;20382;-50
2023/05/12 05:05:27;;;;;;;;;;;;;;;19.35;63.26;98262.09;2070460;28;19931;-50
2023/05/12 05:06:29;;;;;;;;;;;;;;;19.36;63.44;98260.22;2070145;28;19932;-50
2023/05/12 05:07:30;;;;;;;;;;;;;;;19.35;63.45;98267.47;2074414;28;19921;-49
2023/05/12 05:08:31;;;;;;;;;;;;;;;19.36;63.47;98266.47;2075822;28;19925;-46
2023/05/12 05:09:32;;;;;;;;;;;;;;;19.36;63.43;98269.16;2066783;28;19936;-50
2023/05/12 05:10:33;;;;;;;;;;;;;;;19.34;63.36;98271.22;2070010;28;19929;-50
2023/05/12 05:11:33;;;;;;;;;;;;;;;19.34;63.08;98271.22;2066255;28;19982;-46
2023/05/12 05:12:35;;;;;;;;;;;;;;;19.34;63.68;98271.22;2066154;28;20011;-48
2023/05/12 05:13:35;;;;;;;;;;;;;;;19.35;63.28;98272.03;2067302;28;19925;-49
2023/05/12 05:14:37;;;;;;;;;;;;;;;19.34;63.43;98271.22;2066261;28;19973;-52
2023/05/12 05:15:38;;;;;;;;;;;;;;;19.34;63.15;98268.53;2067244;28;19925;-49
2023/05/12 05:16:41;;;;;;;;;;;;;;;19.34;63.45;98271.22;2071713;28;19929;-49
2023/05/12 05:17:42;;;;;;;;;;;;;;;19.36;63.15;98273.69;2068364;28;21154;-52
2023/05/12 05:18:45;;;;;;;;;;;;;;;19.35;63.40;98272.03;2065586;28;19929;-50
2023/05/12 05:19:45;;;;;;;;;;;;;;;19.35;63.14;98275.56;2067800;28;21339;-49